»·PEaware :: QXE2374 KSEA-KGEG

QXE2374 :: KSEA-KGEG

FLIGHT INFORMATION

Flight Status: Arrived
Operator:
Horizon Air
More flights by this operator :: More flights under this callsign
Pilot: Trevel L P. (20826)
Aircraft: DEHAVILLAND DASH 8 400
(DH8D)
More flights by this aircraft type
Origin: KSEA Seattle-Tacoma Intl
United States
Destination: KGEG Spokane Intl
United States
More flights between these airports :: More routes between these airports
Route: SEA7 ZADON ZELAK ZIRAN ZOOMR ZOOMR1
File this flight plan on PilotEdge
Remarks: RMK / SIMBRIEF
Altitude:
(Current/Filed)
21,000ft
Speed:
(Current/Filed)
316kts
Departed: 03-Feb-21 09:03 PM
Arrived: 03-Feb-21 09:58 PM
Distance/Time
Traveled:
193nm/0:54
Distance/Time
To Go:
Arrived

Flight Plot

Page will automatically refresh every two minutes.

Flight plan parsing failed; only flown route is shown


Map Options




Map Legend


Flown Route
Filed Route
Departure Airport
Arrival Airport
Navaid (VOR, NDB)
Fix

Horizontal Profiles

Position Reports

Time Latitude Longitude Heading Altitude Ground
Speed
03-Feb-21 20:30 47.446153 -122.304896 90 440ft 0kts
03-Feb-21 20:31 47.446153 -122.304896 90 440ft 0kts
03-Feb-21 20:32 47.446153 -122.304896 90 440ft 0kts
03-Feb-21 20:33 47.446153 -122.304896 90 440ft 0kts
03-Feb-21 20:34 47.446153 -122.304896 90 440ft 0kts
03-Feb-21 20:35 47.446153 -122.304896 90 440ft 0kts
03-Feb-21 20:36 47.446153 -122.304896 90 440ft 0kts
03-Feb-21 20:37 47.446153 -122.304896 90 440ft 0kts
03-Feb-21 20:38 47.446153 -122.304896 90 440ft 0kts
03-Feb-21 20:39 47.446153 -122.304896 90 440ft 0kts
03-Feb-21 20:40 47.446153 -122.304896 90 440ft 0kts
03-Feb-21 20:41 47.446153 -122.304896 90 440ft 0kts
03-Feb-21 20:42 47.446153 -122.304896 90 440ft 0kts
03-Feb-21 20:43 47.446153 -122.304896 90 440ft 0kts
03-Feb-21 20:44 47.446153 -122.304896 90 440ft 0kts
03-Feb-21 20:45 47.446153 -122.304896 90 440ft 0kts
03-Feb-21 20:46 47.446153 -122.304896 90 440ft 0kts
03-Feb-21 20:47 47.446153 -122.304896 90 440ft 0kts
03-Feb-21 20:48 47.446153 -122.304896 90 440ft 0kts
03-Feb-21 20:49 47.446153 -122.304896 90 440ft 0kts
03-Feb-21 20:50 47.446153 -122.304896 90 440ft 0kts
03-Feb-21 20:51 47.446153 -122.304896 90 440ft 0kts
03-Feb-21 20:52 47.446153 -122.304988 89 440ft 2kts
03-Feb-21 20:53 47.445972 -122.306094 36 440ft 3kts
03-Feb-21 20:54 47.445720 -122.306163 359 440ft 0kts
03-Feb-21 20:55 47.445720 -122.306163 359 440ft 0kts
03-Feb-21 20:56 47.445720 -122.306163 359 440ft 0kts
03-Feb-21 20:57 47.448547 -122.306123 359 440ft 0kts
03-Feb-21 20:58 47.452384 -122.306201 0 440ft 0kts
03-Feb-21 20:59 47.459309 -122.306181 359 440ft 0kts
03-Feb-21 21:00 47.463552 -122.306478 290 440ft 0kts
03-Feb-21 21:01 47.462055 -122.307819 180 440ft 0kts
03-Feb-21 21:02 47.424868 -122.305095 178 1955ft 43kts
03-Feb-21 21:03 47.377157 -122.306384 177 4612ft 45kts
03-Feb-21 21:04 47.325891 -122.300725 179 7370ft 55kts
03-Feb-21 21:05 47.283098 -122.263644 84 9925ft 80kts
03-Feb-21 21:06 47.312666 -122.193416 41 12575ft 67kts
03-Feb-21 21:07 47.347935 -122.127692 38 14679ft 70kts
03-Feb-21 21:08 47.389309 -122.053787 40 15948ft 95kts
03-Feb-21 21:09 47.430108 -121.978660 38 17757ft 93kts
03-Feb-21 21:10 47.471304 -121.903627 38 19222ft 99kts
03-Feb-21 21:11 47.513148 -121.827439 37 20511ft 104kts
03-Feb-21 21:12 47.555136 -121.747025 53 21309ft 122kts
03-Feb-21 21:13 47.561383 -121.620449 81 21336ft 302kts
03-Feb-21 21:14 47.558965 -121.480022 82 21313ft 284kts
03-Feb-21 21:15 47.556701 -121.330647 82 21295ft 353kts
03-Feb-21 21:16 47.554285 -121.179376 83 21278ft 343kts
03-Feb-21 21:17 47.551571 -121.026677 83 21280ft 344kts
03-Feb-21 21:18 47.548736 -120.876244 82 21282ft 306kts
03-Feb-21 21:19 47.545845 -120.725787 83 21280ft 288kts
03-Feb-21 21:20 47.542444 -120.574096 83 21267ft 278kts
03-Feb-21 21:21 47.539024 -120.420995 84 21264ft 272kts
03-Feb-21 21:22 47.532375 -120.267922 86 21260ft 269kts
03-Feb-21 21:23 47.524794 -120.114615 86 21258ft 268kts
03-Feb-21 21:24 47.517459 -119.961370 86 21257ft 266kts
03-Feb-21 21:25 47.510683 -119.823091 86 21257ft 265kts
03-Feb-21 21:26 47.502964 -119.669988 86 21257ft 264kts
03-Feb-21 21:27 47.495428 -119.523621 86 21257ft 362kts
03-Feb-21 21:28 47.487291 -119.370843 86 21258ft 318kts
03-Feb-21 21:29 47.478991 -119.218321 86 20912ft 300kts
03-Feb-21 21:31 47.470863 -119.071067 86 19090ft 347kts
03-Feb-21 21:32 47.462969 -118.932079 87 17427ft 316kts
03-Feb-21 21:33 47.455783 -118.801522 87 15882ft 295kts
03-Feb-21 21:34 47.448214 -118.670934 89 14331ft 285kts
03-Feb-21 21:35 47.440241 -118.539964 91 12773ft 276kts
03-Feb-21 21:36 47.432284 -118.410810 93 11236ft 269kts
03-Feb-21 21:37 47.434539 -118.286589 59 9666ft 262kts
03-Feb-21 21:38 47.475693 -118.186534 55 8621ft 244kts
03-Feb-21 21:39 47.515197 -118.091449 55 7628ft 229kts
03-Feb-21 21:40 47.551547 -118.003703 55 6409ft 238kts
03-Feb-21 21:41 47.586045 -117.920352 55 6014ft 207kts
03-Feb-21 21:42 47.620060 -117.836983 55 6002ft 186kts
03-Feb-21 21:43 47.654049 -117.753706 55 5999ft 176kts
03-Feb-21 21:44 47.685022 -117.677767 55 5992ft 193kts
03-Feb-21 21:45 47.712062 -117.610299 55 5654ft 158kts
03-Feb-21 21:46 47.726894 -117.540129 122 5019ft 149kts
03-Feb-21 21:47 47.681176 -117.537422 201 4235ft 158kts
03-Feb-21 21:48 47.647183 -117.564207 224 3273ft 158kts
03-Feb-21 21:49 47.629650 -117.604077 243 2998ft 85kts
03-Feb-21 21:49 47.632424 -117.641691 332 4126ft 54kts
03-Feb-21 21:51 47.674006 -117.596782 46 5479ft 89kts
03-Feb-21 21:51 47.702137 -117.545026 51 5294ft 119kts
03-Feb-21 21:52 47.731280 -117.491185 45 4885ft 135kts
03-Feb-21 21:53 47.722862 -117.439432 169 4231ft 141kts
03-Feb-21 21:54 47.682565 -117.451120 205 3650ft 145kts
03-Feb-21 21:55 47.651910 -117.486161 228 2970ft 147kts
03-Feb-21 21:56 47.628311 -117.522630 225 2393ft 112kts
03-Feb-21 21:57 47.621833 -117.532549 223 2392ft 0kts
03-Feb-21 21:58 47.620670 -117.538194 42 2392ft 0kts
03-Feb-21 21:59 47.622792 -117.538979 313 2392ft 0kts
03-Feb-21 22:00 47.623301 -117.539298 351 2392ft 0kts

Navigation Log

Ident Type
Flight plan parsing failed, navigation log unavailable